Atlanta, Idaho
Current Conditions -  °F | °C
As of 5:35 AM on Friday 19 Dec 2014 (Local Time) from KSUN Reporting Station
Moderate Snow Moderate Snow  
Wind Chill: 26°   Ceiling: 400
Heat Index: 32°   Visibility: 0.75mi
Dew Point: 30°   Wind: 6mph
Humidity: 93%   Direction: 330°NNW
Pressure: 30.11"   Gusts: NA
Location:  43.8°N, 115.13°W
Report Text: KSUN 191235Z AUTO 33005KT 3/4SM SN OVC004 00/M01 A3011 RMK AO2
Loading
Personal Weather Stations






























Interactive Weather Map New forecast layout! Learn more

10-Day Weather Forecast

Advertisements
Track Severe Weather on mobile